SBOSBO LPL / EGGP
Speedbird OnlineSpeedbird Online LPL / EGGP

Liverpool John Lennon Airport
01:28 4.4°C

Location Liverpool, United Kingdom
Latitude: 53.33359909057617
Longitude: -2.849720001220703
Web Airport Website | Wikipedia
Altitude 24 Meter / 80 Feet
Distance 286 KM / 178 Miles
from London.
Time Zone UTC 0 hours (Europe/London)
Codes IATA: LPL
ICAO: EGGP
Runways
RunwayLength (m)Surface
092285Asphalt
272285Asphalt
Radio
TypeDescriptionFrequency
APPAPP119.85
ATISATIS124.325
GNDGND121.95
TWRTWR126.35
Live ATC
METAR EGGP 270050Z 35009KT 9999 SCT030 SCT040 05/01 Q1034
TAF TAF EGGP 262255Z 2700/2724 36010KT 9999 SCT035 PROB30 TEMPO 2703/2712 4000 BR -DZRA BKN014 BECMG 2709/2712 30006KT
Weather As Of 27 Jan 2023 01:28
Description Scattered clouds
Wind 17 km/h from North (350°)
Cloud Cover 40%
Precipitation Rain: none, Snow: none
Sunrise 08:04
Sunset 16:43
Rotations During the last 90 days there were
1 flights from LHR
1 flights to MAN



Support Speedbird Online

© 2017-2023 Speedbird Online